This is the latest recevied weather packets stored in our database for station/object WS2Z. If no packets are shown the sender has not sent any weather packets the latest 1 day(s).
| Time | Temp. | Humidity | Pressure | Rain* | Wind** | Luminosity | Snow |
|---|---|---|---|---|---|---|---|
| 1777990548 | 27.22° C | 76% | 1015.5 hPa | 0 mm | 0.89 m/s, 79° | 590 W/m² | - |
| 1777990245 | 26.67° C | 77% | 1015.6 hPa | 0 mm | 0.89 m/s, 91° | 566 W/m² | - |
| 1777989941 | 26.11° C | 78% | 1015.7 hPa | 0 mm | 0 m/s | 558 W/m² | - |
| 1777989638 | 25.56° C | 81% | 1015.8 hPa | 0 mm | 0.45 m/s, 122° | 534 W/m² | - |
| 1777989335 | 25.56° C | 80% | 1015.7 hPa | 0 mm | 0.89 m/s, 60° | 525 W/m² | - |
| 1777989031 | 25.56° C | 81% | 1015.9 hPa | 0 mm | 0.45 m/s, 57° | 515 W/m² | - |
| 1777988727 | 25° C | 82% | 1015.7 hPa | 0 mm | 1.34 m/s, 84° | 500 W/m² | - |
| 1777988424 | 24.44° C | 87% | 1015.8 hPa | 0 mm | 0 m/s | 462 W/m² | - |
| 1777988121 | 23.33° C | 88% | 1015.7 hPa | 0 mm | 0.45 m/s, 54° | 463 W/m² | - |
| 1777987817 | 23.33° C | 88% | 1015.6 hPa | 0 mm | 1.79 m/s, 153° | 444 W/m² | - |
| 1777987514 | 23.33° C | 89% | 1015.6 hPa | 0 mm | 1.34 m/s, 138° | 426 W/m² | - |
| 1777987212 | 22.78° C | 90% | 1015.8 hPa | 0 mm | 1.79 m/s, 87° | 250 W/m² | - |
| 1777986908 | 22.78° C | 91% | 1015.8 hPa | 0 mm | 1.79 m/s, 160° | 103 W/m² | - |
| 1777986606 | 22.22° C | 91% | 1015.6 hPa | 0 mm | 1.34 m/s, 164° | 97 W/m² | - |
| 1777986304 | 22.22° C | 93% | 1015.6 hPa | 0 mm | 1.34 m/s, 87° | 86 W/m² | - |
| 1777986002 | 21.67° C | 94% | 1015.5 hPa | 0 mm | 1.34 m/s, 88° | 84 W/m² | - |
| 1777985698 | 21.67° C | 94% | 1015.4 hPa | 0 mm | 1.34 m/s, 132° | 96 W/m² | - |
| 1777985395 | 21.67° C | 94% | 1015.6 hPa | 0 mm | 1.34 m/s, 150° | 119 W/m² | - |
| 1777985092 | 21.67° C | 94% | 1015.6 hPa | 0 mm | 1.34 m/s, 75° | 119 W/m² | - |
| 1777984788 | 21.11° C | 95% | 1015.3 hPa | 0 mm | 1.34 m/s, 31° | 109 W/m² | - |
| 1777984484 | 21.11° C | 95% | 1015.3 hPa | 0 mm | 0 m/s | 86 W/m² | - |
| 1777984180 | 20.56° C | 95% | 1015.3 hPa | 0 mm | 0 m/s | 82 W/m² | - |
| 1777983878 | 20.56° C | 96% | 1015.4 hPa | 0 mm | 0.89 m/s, 71° | 76 W/m² | - |
| 1777983574 | 20.56° C | 95% | 1015.4 hPa | 0 mm | 0.45 m/s, 182° | 61 W/m² | - |
| 1777983272 | 20° C | 96% | 1015.3 hPa | 0 mm | 0 m/s | 54 W/m² | - |
* Rain latest hour (hover to see other rain measurements)
** Current wind speed in m/s (hover to see current wind gust speed)